sensor_id;sensor_type;location;lat;lon;timestamp;P1;durP1;ratioP1;P2;durP2;ratioP2
76348;SDS011;65172;46.764;15.406;2024-03-17T00:02:20;2.63;;;2.28;;
76348;SDS011;65172;46.764;15.406;2024-03-17T00:04:45;3.30;;;2.17;;
76348;SDS011;65172;46.764;15.406;2024-03-17T00:07:12;2.42;;;2.17;;
76348;SDS011;65172;46.764;15.406;2024-03-17T00:09:38;2.88;;;2.20;;
76348;SDS011;65172;46.764;15.406;2024-03-17T00:12:04;2.40;;;2.20;;
76348;SDS011;65172;46.764;15.406;2024-03-17T00:14:30;2.28;;;2.05;;
76348;SDS011;65172;46.764;15.406;2024-03-17T00:16:55;3.42;;;2.83;;
76348;SDS011;65172;46.764;15.406;2024-03-17T00:19:21;4.05;;;2.47;;
76348;SDS011;65172;46.764;15.406;2024-03-17T00:21:48;3.65;;;2.33;;
76348;SDS011;65172;46.764;15.406;2024-03-17T00:24:17;2.60;;;2.33;;
76348;SDS011;65172;46.764;15.406;2024-03-17T00:26:43;7.38;;;4.30;;
76348;SDS011;65172;46.764;15.406;2024-03-17T00:29:09;4.38;;;3.35;;
76348;SDS011;65172;46.764;15.406;2024-03-17T00:31:35;6.00;;;3.33;;
76348;SDS011;65172;46.764;15.406;2024-03-17T00:34:00;2.95;;;2.35;;
76348;SDS011;65172;46.764;15.406;2024-03-17T00:36:26;3.00;;;2.47;;
76348;SDS011;65172;46.764;15.406;2024-03-17T00:38:51;3.05;;;2.28;;
76348;SDS011;65172;46.764;15.406;2024-03-17T00:41:17;2.55;;;2.30;;
76348;SDS011;65172;46.764;15.406;2024-03-17T00:43:44;3.35;;;2.30;;
76348;SDS011;65172;46.764;15.406;2024-03-17T00:46:10;3.45;;;2.63;;
76348;SDS011;65172;46.764;15.406;2024-03-17T00:48:35;7.72;;;3.50;;
76348;SDS011;65172;46.764;15.406;2024-03-17T00:51:00;2.78;;;2.00;;
76348;SDS011;65172;46.764;15.406;2024-03-17T00:53:27;4.75;;;2.25;;
76348;SDS011;65172;46.764;15.406;2024-03-17T00:55:54;3.03;;;2.47;;
76348;SDS011;65172;46.764;15.406;2024-03-17T00:58:23;2.85;;;2.40;;
76348;SDS011;65172;46.764;15.406;2024-03-17T01:00:49;3.15;;;2.30;;
76348;SDS011;65172;46.764;15.406;2024-03-17T01:03:15;2.42;;;2.22;;
76348;SDS011;65172;46.764;15.406;2024-03-17T01:05:41;2.88;;;2.10;;
76348;SDS011;65172;46.764;15.406;2024-03-17T01:08:08;4.05;;;2.38;;
76348;SDS011;65172;46.764;15.406;2024-03-17T01:10:38;2.75;;;2.03;;
76348;SDS011;65172;46.764;15.406;2024-03-17T01:13:07;2.22;;;2.03;;
76348;SDS011;65172;46.764;15.406;2024-03-17T01:15:34;2.40;;;2.15;;
76348;SDS011;65172;46.764;15.406;2024-03-17T01:18:00;2.70;;;2.50;;
76348;SDS011;65172;46.764;15.406;2024-03-17T01:20:26;4.20;;;2.30;;
76348;SDS011;65172;46.764;15.406;2024-03-17T01:22:51;3.20;;;2.70;;
76348;SDS011;65172;46.764;15.406;2024-03-17T01:25:17;3.35;;;2.45;;
76348;SDS011;65172;46.764;15.406;2024-03-17T01:27:43;5.35;;;2.40;;
76348;SDS011;65172;46.764;15.406;2024-03-17T01:30:09;3.70;;;2.70;;
76348;SDS011;65172;46.764;15.406;2024-03-17T01:32:35;4.07;;;2.72;;
76348;SDS011;65172;46.764;15.406;2024-03-17T01:35:01;3.80;;;3.03;;
76348;SDS011;65172;46.764;15.406;2024-03-17T01:37:26;4.53;;;2.90;;
76348;SDS011;65172;46.764;15.406;2024-03-17T01:39:52;4.43;;;2.45;;
76348;SDS011;65172;46.764;15.406;2024-03-17T01:42:18;4.70;;;3.30;;
76348;SDS011;65172;46.764;15.406;2024-03-17T01:44:43;3.90;;;2.85;;
76348;SDS011;65172;46.764;15.406;2024-03-17T01:47:09;3.22;;;2.90;;
76348;SDS011;65172;46.764;15.406;2024-03-17T01:49:35;3.40;;;2.60;;
76348;SDS011;65172;46.764;15.406;2024-03-17T01:52:01;3.25;;;2.90;;
76348;SDS011;65172;46.764;15.406;2024-03-17T01:54:28;3.65;;;2.90;;
76348;SDS011;65172;46.764;15.406;2024-03-17T01:56:54;4.25;;;3.58;;
76348;SDS011;65172;46.764;15.406;2024-03-17T01:59:20;4.10;;;3.50;;
76348;SDS011;65172;46.764;15.406;2024-03-17T02:01:46;5.38;;;4.53;;
76348;SDS011;65172;46.764;15.406;2024-03-17T02:04:11;4.05;;;3.08;;
76348;SDS011;65172;46.764;15.406;2024-03-17T02:06:37;4.15;;;2.90;;
76348;SDS011;65172;46.764;15.406;2024-03-17T02:09:02;4.95;;;4.10;;
76348;SDS011;65172;46.764;15.406;2024-03-17T02:11:29;5.43;;;3.53;;
76348;SDS011;65172;46.764;15.406;2024-03-17T02:13:56;4.53;;;3.63;;
76348;SDS011;65172;46.764;15.406;2024-03-17T02:16:22;4.50;;;3.17;;
76348;SDS011;65172;46.764;15.406;2024-03-17T02:18:48;3.83;;;3.20;;
76348;SDS011;65172;46.764;15.406;2024-03-17T02:21:14;4.13;;;3.22;;
76348;SDS011;65172;46.764;15.406;2024-03-17T02:23:43;8.18;;;3.65;;
76348;SDS011;65172;46.764;15.406;2024-03-17T02:26:09;6.20;;;3.42;;
76348;SDS011;65172;46.764;15.406;2024-03-17T02:28:42;5.55;;;3.63;;
76348;SDS011;65172;46.764;15.406;2024-03-17T02:31:08;7.07;;;4.00;;
76348;SDS011;65172;46.764;15.406;2024-03-17T02:33:35;7.60;;;4.90;;
76348;SDS011;65172;46.764;15.406;2024-03-17T02:36:00;7.38;;;5.95;;
76348;SDS011;65172;46.764;15.406;2024-03-17T02:38:26;5.60;;;4.30;;
76348;SDS011;65172;46.764;15.406;2024-03-17T02:41:10;5.90;;;4.30;;
76348;SDS011;65172;46.764;15.406;2024-03-17T02:43:36;5.55;;;3.20;;
76348;SDS011;65172;46.764;15.406;2024-03-17T02:46:02;3.03;;;2.58;;
76348;SDS011;65172;46.764;15.406;2024-03-17T02:48:31;3.88;;;2.50;;
76348;SDS011;65172;46.764;15.406;2024-03-17T02:50:57;2.25;;;1.90;;
76348;SDS011;65172;46.764;15.406;2024-03-17T02:53:22;4.05;;;2.40;;
76348;SDS011;65172;46.764;15.406;2024-03-17T02:55:48;2.42;;;2.22;;
76348;SDS011;65172;46.764;15.406;2024-03-17T02:58:13;3.15;;;2.13;;
76348;SDS011;65172;46.764;15.406;2024-03-17T03:00:39;2.85;;;2.10;;
76348;SDS011;65172;46.764;15.406;2024-03-17T03:03:05;2.45;;;2.15;;
76348;SDS011;65172;46.764;15.406;2024-03-17T03:05:30;4.55;;;2.00;;
76348;SDS011;65172;46.764;15.406;2024-03-17T03:07:56;1.83;;;1.63;;
76348;SDS011;65172;46.764;15.406;2024-03-17T03:10:22;2.42;;;2.00;;
76348;SDS011;65172;46.764;15.406;2024-03-17T03:12:47;1.92;;;1.73;;
76348;SDS011;65172;46.764;15.406;2024-03-17T03:15:13;3.17;;;1.90;;
76348;SDS011;65172;46.764;15.406;2024-03-17T03:17:38;2.58;;;1.90;;
76348;SDS011;65172;46.764;15.406;2024-03-17T03:20:04;3.58;;;1.60;;
76348;SDS011;65172;46.764;15.406;2024-03-17T03:22:31;1.98;;;1.88;;
76348;SDS011;65172;46.764;15.406;2024-03-17T03:24:56;2.20;;;2.00;;
76348;SDS011;65172;46.764;15.406;2024-03-17T03:27:23;2.13;;;1.80;;
76348;SDS011;65172;46.764;15.406;2024-03-17T03:29:49;3.03;;;1.80;;
76348;SDS011;65172;46.764;15.406;2024-03-17T03:32:15;3.13;;;1.50;;
76348;SDS011;65172;46.764;15.406;2024-03-17T03:34:42;2.88;;;1.55;;
76348;SDS011;65172;46.764;15.406;2024-03-17T03:37:08;2.58;;;1.70;;
76348;SDS011;65172;46.764;15.406;2024-03-17T03:39:34;4.78;;;1.58;;
76348;SDS011;65172;46.764;15.406;2024-03-17T03:42:01;1.88;;;1.70;;
76348;SDS011;65172;46.764;15.406;2024-03-17T03:44:27;2.85;;;1.77;;
76348;SDS011;65172;46.764;15.406;2024-03-17T03:46:53;1.65;;;1.40;;
76348;SDS011;65172;46.764;15.406;2024-03-17T03:49:23;2.90;;;2.10;;
76348;SDS011;65172;46.764;15.406;2024-03-17T03:51:50;2.20;;;2.00;;
76348;SDS011;65172;46.764;15.406;2024-03-17T03:54:15;2.67;;;2.13;;
76348;SDS011;65172;46.764;15.406;2024-03-17T03:56:41;2.25;;;2.03;;
76348;SDS011;65172;46.764;15.406;2024-03-17T03:59:06;2.67;;;1.80;;
76348;SDS011;65172;46.764;15.406;2024-03-17T04:01:32;2.15;;;1.95;;
76348;SDS011;65172;46.764;15.406;2024-03-17T04:03:57;2.20;;;2.00;;
76348;SDS011;65172;46.764;15.406;2024-03-17T04:06:23;5.35;;;2.20;;
76348;SDS011;65172;46.764;15.406;2024-03-17T04:08:48;1.70;;;1.60;;
76348;SDS011;65172;46.764;15.406;2024-03-17T04:11:14;1.85;;;1.65;;
76348;SDS011;65172;46.764;15.406;2024-03-17T04:13:39;5.32;;;1.40;;
76348;SDS011;65172;46.764;15.406;2024-03-17T04:16:06;2.42;;;1.60;;
76348;SDS011;65172;46.764;15.406;2024-03-17T04:18:32;2.30;;;1.50;;
76348;SDS011;65172;46.764;15.406;2024-03-17T04:21:03;3.83;;;1.45;;
76348;SDS011;65172;46.764;15.406;2024-03-17T04:23:29;1.37;;;1.03;;
76348;SDS011;65172;46.764;15.406;2024-03-17T04:25:57;1.95;;;1.40;;
76348;SDS011;65172;46.764;15.406;2024-03-17T04:28:23;1.88;;;1.40;;
76348;SDS011;65172;46.764;15.406;2024-03-17T04:30:48;2.30;;;1.50;;
76348;SDS011;65172;46.764;15.406;2024-03-17T04:33:14;2.10;;;1.20;;
76348;SDS011;65172;46.764;15.406;2024-03-17T04:35:42;1.60;;;1.40;;
76348;SDS011;65172;46.764;15.406;2024-03-17T04:38:07;1.10;;;1.00;;
76348;SDS011;65172;46.764;15.406;2024-03-17T04:40:34;3.67;;;2.10;;
76348;SDS011;65172;46.764;15.406;2024-03-17T04:43:00;1.92;;;1.73;;
76348;SDS011;65172;46.764;15.406;2024-03-17T04:45:26;1.83;;;1.70;;
76348;SDS011;65172;46.764;15.406;2024-03-17T04:47:52;2.85;;;1.63;;
76348;SDS011;65172;46.764;15.406;2024-03-17T04:50:18;1.60;;;1.38;;
76348;SDS011;65172;46.764;15.406;2024-03-17T04:52:43;1.63;;;1.40;;
76348;SDS011;65172;46.764;15.406;2024-03-17T04:55:09;2.67;;;2.42;;
76348;SDS011;65172;46.764;15.406;2024-03-17T04:57:34;2.03;;;1.83;;
76348;SDS011;65172;46.764;15.406;2024-03-17T05:00:01;3.03;;;2.00;;
76348;SDS011;65172;46.764;15.406;2024-03-17T05:02:28;1.90;;;1.80;;
76348;SDS011;65172;46.764;15.406;2024-03-17T05:04:53;2.15;;;1.98;;
76348;SDS011;65172;46.764;15.406;2024-03-17T05:07:19;3.45;;;2.15;;
76348;SDS011;65172;46.764;15.406;2024-03-17T05:09:44;1.85;;;1.70;;
76348;SDS011;65172;46.764;15.406;2024-03-17T05:12:10;1.65;;;1.55;;
76348;SDS011;65172;46.764;15.406;2024-03-17T05:14:36;1.58;;;1.48;;
76348;SDS011;65172;46.764;15.406;2024-03-17T05:17:01;2.35;;;2.03;;
76348;SDS011;65172;46.764;15.406;2024-03-17T05:19:27;2.78;;;1.80;;
76348;SDS011;65172;46.764;15.406;2024-03-17T05:21:52;2.33;;;2.13;;
76348;SDS011;65172;46.764;15.406;2024-03-17T05:24:18;2.22;;;2.05;;
76348;SDS011;65172;46.764;15.406;2024-03-17T05:26:44;3.25;;;2.13;;
76348;SDS011;65172;46.764;15.406;2024-03-17T05:29:10;2.85;;;2.10;;
76348;SDS011;65172;46.764;15.406;2024-03-17T05:31:36;1.50;;;1.40;;
76348;SDS011;65172;46.764;15.406;2024-03-17T05:34:04;2.85;;;1.70;;
76348;SDS011;65172;46.764;15.406;2024-03-17T05:36:31;1.02;;;1.00;;
76348;SDS011;65172;46.764;15.406;2024-03-17T05:38:58;0.68;;;0.68;;
76348;SDS011;65172;46.764;15.406;2024-03-17T05:41:24;0.65;;;0.65;;
76348;SDS011;65172;46.764;15.406;2024-03-17T05:43:51;2.50;;;1.00;;
76348;SDS011;65172;46.764;15.406;2024-03-17T05:46:16;1.13;;;0.82;;
76348;SDS011;65172;46.764;15.406;2024-03-17T05:48:42;0.80;;;0.80;;
76348;SDS011;65172;46.764;15.406;2024-03-17T05:51:09;2.38;;;1.75;;
76348;SDS011;65172;46.764;15.406;2024-03-17T05:53:36;2.60;;;2.20;;
76348;SDS011;65172;46.764;15.406;2024-03-17T05:56:05;2.95;;;2.28;;
76348;SDS011;65172;46.764;15.406;2024-03-17T05:58:32;5.38;;;2.22;;
76348;SDS011;65172;46.764;15.406;2024-03-17T06:01:01;5.45;;;1.73;;
76348;SDS011;65172;46.764;15.406;2024-03-17T06:03:27;1.58;;;1.48;;
76348;SDS011;65172;46.764;15.406;2024-03-17T06:05:53;1.60;;;1.40;;
76348;SDS011;65172;46.764;15.406;2024-03-17T06:08:18;1.70;;;1.60;;
76348;SDS011;65172;46.764;15.406;2024-03-17T06:10:45;1.65;;;1.45;;
76348;SDS011;65172;46.764;15.406;2024-03-17T06:13:12;1.20;;;1.17;;
76348;SDS011;65172;46.764;15.406;2024-03-17T06:15:40;1.25;;;1.17;;
76348;SDS011;65172;46.764;15.406;2024-03-17T06:18:06;3.55;;;1.27;;
76348;SDS011;65172;46.764;15.406;2024-03-17T06:20:39;2.03;;;1.40;;
76348;SDS011;65172;46.764;15.406;2024-03-17T06:25:37;1.63;;;1.52;;
76348;SDS011;65172;46.764;15.406;2024-03-17T06:28:06;3.35;;;1.25;;
76348;SDS011;65172;46.764;15.406;2024-03-17T06:30:31;1.42;;;1.33;;
76348;SDS011;65172;46.764;15.406;2024-03-17T06:32:58;1.25;;;1.15;;
76348;SDS011;65172;46.764;15.406;2024-03-17T06:35:23;1.00;;;0.95;;
76348;SDS011;65172;46.764;15.406;2024-03-17T06:37:51;1.10;;;0.65;;
76348;SDS011;65172;46.764;15.406;2024-03-17T06:40:17;1.00;;;1.00;;
76348;SDS011;65172;46.764;15.406;2024-03-17T06:42:43;0.98;;;0.98;;
76348;SDS011;65172;46.764;15.406;2024-03-17T06:45:08;0.75;;;0.75;;
76348;SDS011;65172;46.764;15.406;2024-03-17T06:47:34;1.33;;;0.77;;
76348;SDS011;65172;46.764;15.406;2024-03-17T06:50:02;2.78;;;1.50;;
76348;SDS011;65172;46.764;15.406;2024-03-17T06:52:28;3.72;;;0.90;;
76348;SDS011;65172;46.764;15.406;2024-03-17T06:54:54;0.63;;;0.60;;
76348;SDS011;65172;46.764;15.406;2024-03-17T06:57:19;1.00;;;0.60;;
76348;SDS011;65172;46.764;15.406;2024-03-17T06:59:45;2.03;;;0.55;;
76348;SDS011;65172;46.764;15.406;2024-03-17T07:02:11;0.60;;;0.60;;
76348;SDS011;65172;46.764;15.406;2024-03-17T07:04:40;0.93;;;0.93;;
76348;SDS011;65172;46.764;15.406;2024-03-17T07:07:06;1.30;;;1.20;;
76348;SDS011;65172;46.764;15.406;2024-03-17T07:09:31;1.10;;;1.00;;
76348;SDS011;65172;46.764;15.406;2024-03-17T07:11:57;0.60;;;0.60;;
76348;SDS011;65172;46.764;15.406;2024-03-17T07:14:22;0.70;;;0.70;;
76348;SDS011;65172;46.764;15.406;2024-03-17T07:16:51;1.08;;;0.95;;
76348;SDS011;65172;46.764;15.406;2024-03-17T07:19:16;1.80;;;1.50;;
76348;SDS011;65172;46.764;15.406;2024-03-17T07:21:42;1.50;;;1.40;;
76348;SDS011;65172;46.764;15.406;2024-03-17T07:24:07;1.65;;;1.50;;
76348;SDS011;65172;46.764;15.406;2024-03-17T07:26:33;1.10;;;0.80;;
76348;SDS011;65172;46.764;15.406;2024-03-17T07:28:59;0.80;;;0.80;;
76348;SDS011;65172;46.764;15.406;2024-03-17T07:31:25;0.90;;;0.90;;
76348;SDS011;65172;46.764;15.406;2024-03-17T07:33:51;1.15;;;1.08;;
76348;SDS011;65172;46.764;15.406;2024-03-17T07:36:16;1.30;;;1.20;;
76348;SDS011;65172;46.764;15.406;2024-03-17T07:38:42;2.15;;;0.90;;
76348;SDS011;65172;46.764;15.406;2024-03-17T07:41:08;0.80;;;0.80;;
76348;SDS011;65172;46.764;15.406;2024-03-17T07:43:34;2.85;;;1.27;;
76348;SDS011;65172;46.764;15.406;2024-03-17T07:46:03;1.05;;;0.95;;
76348;SDS011;65172;46.764;15.406;2024-03-17T07:48:29;1.38;;;0.77;;
76348;SDS011;65172;46.764;15.406;2024-03-17T07:53:31;0.60;;;0.60;;
76348;SDS011;65172;46.764;15.406;2024-03-17T07:56:01;1.10;;;1.00;;
76348;SDS011;65172;46.764;15.406;2024-03-17T07:58:31;1.38;;;0.90;;
76348;SDS011;65172;46.764;15.406;2024-03-17T08:01:01;1.13;;;1.10;;
76348;SDS011;65172;46.764;15.406;2024-03-17T08:03:35;0.70;;;0.55;;
76348;SDS011;65172;46.764;15.406;2024-03-17T08:06:02;1.77;;;1.30;;
76348;SDS011;65172;46.764;15.406;2024-03-17T08:08:29;2.20;;;1.52;;
76348;SDS011;65172;46.764;15.406;2024-03-17T08:10:54;2.45;;;0.90;;
76348;SDS011;65172;46.764;15.406;2024-03-17T08:13:20;4.55;;;1.33;;
76348;SDS011;65172;46.764;15.406;2024-03-17T08:15:47;2.35;;;1.08;;
76348;SDS011;65172;46.764;15.406;2024-03-17T08:18:24;1.48;;;1.38;;
76348;SDS011;65172;46.764;15.406;2024-03-17T08:20:50;1.25;;;0.88;;
76348;SDS011;65172;46.764;15.406;2024-03-17T08:23:15;4.32;;;1.30;;
76348;SDS011;65172;46.764;15.406;2024-03-17T08:25:42;3.05;;;0.82;;
76348;SDS011;65172;46.764;15.406;2024-03-17T08:28:08;2.05;;;1.10;;
76348;SDS011;65172;46.764;15.406;2024-03-17T08:30:33;1.02;;;0.63;;
76348;SDS011;65172;46.764;15.406;2024-03-17T08:33:02;1.40;;;0.55;;
76348;SDS011;65172;46.764;15.406;2024-03-17T08:35:28;0.50;;;0.50;;
76348;SDS011;65172;46.764;15.406;2024-03-17T08:37:53;0.40;;;0.40;;
76348;SDS011;65172;46.764;15.406;2024-03-17T08:40:22;1.42;;;0.50;;
76348;SDS011;65172;46.764;15.406;2024-03-17T08:42:50;2.22;;;0.55;;
76348;SDS011;65172;46.764;15.406;2024-03-17T08:45:16;0.65;;;0.43;;
76348;SDS011;65172;46.764;15.406;2024-03-17T08:47:41;1.73;;;0.60;;
76348;SDS011;65172;46.764;15.406;2024-03-17T08:50:07;1.35;;;0.40;;
76348;SDS011;65172;46.764;15.406;2024-03-17T08:52:36;7.63;;;0.70;;
76348;SDS011;65172;46.764;15.406;2024-03-17T08:55:02;1.15;;;0.32;;
76348;SDS011;65172;46.764;15.406;2024-03-17T08:57:35;0.35;;;0.35;;
76348;SDS011;65172;46.764;15.406;2024-03-17T09:00:00;0.32;;;0.32;;
76348;SDS011;65172;46.764;15.406;2024-03-17T09:02:26;0.28;;;0.28;;
76348;SDS011;65172;46.764;15.406;2024-03-17T09:04:51;1.17;;;0.40;;
76348;SDS011;65172;46.764;15.406;2024-03-17T09:07:17;0.73;;;0.30;;
76348;SDS011;65172;46.764;15.406;2024-03-17T09:09:43;1.83;;;0.40;;
76348;SDS011;65172;46.764;15.406;2024-03-17T09:12:08;0.45;;;0.30;;
76348;SDS011;65172;46.764;15.406;2024-03-17T09:14:34;0.38;;;0.30;;
76348;SDS011;65172;46.764;15.406;2024-03-17T09:17:00;0.30;;;0.30;;
76348;SDS011;65172;46.764;15.406;2024-03-17T09:19:25;0.47;;;0.47;;
76348;SDS011;65172;46.764;15.406;2024-03-17T09:21:51;0.57;;;0.40;;
76348;SDS011;65172;46.764;15.406;2024-03-17T09:24:16;0.60;;;0.45;;
76348;SDS011;65172;46.764;15.406;2024-03-17T09:26:42;0.52;;;0.52;;
76348;SDS011;65172;46.764;15.406;2024-03-17T09:29:07;1.40;;;0.40;;
76348;SDS011;65172;46.764;15.406;2024-03-17T09:31:33;0.50;;;0.50;;
76348;SDS011;65172;46.764;15.406;2024-03-17T09:34:01;0.50;;;0.50;;
76348;SDS011;65172;46.764;15.406;2024-03-17T09:36:27;3.60;;;0.40;;
76348;SDS011;65172;46.764;15.406;2024-03-17T09:38:53;0.40;;;0.40;;
76348;SDS011;65172;46.764;15.406;2024-03-17T09:43:44;0.50;;;0.50;;
76348;SDS011;65172;46.764;15.406;2024-03-17T09:46:11;0.40;;;0.40;;
76348;SDS011;65172;46.764;15.406;2024-03-17T09:48:36;1.15;;;0.30;;
76348;SDS011;65172;46.764;15.406;2024-03-17T09:51:02;0.30;;;0.30;;
76348;SDS011;65172;46.764;15.406;2024-03-17T09:53:29;0.40;;;0.40;;
76348;SDS011;65172;46.764;15.406;2024-03-17T09:58:41;3.50;;;0.57;;
76348;SDS011;65172;46.764;15.406;2024-03-17T10:01:07;0.40;;;0.40;;
76348;SDS011;65172;46.764;15.406;2024-03-17T10:06:09;0.57;;;0.40;;
76348;SDS011;65172;46.764;15.406;2024-03-17T10:11:07;0.40;;;0.30;;
76348;SDS011;65172;46.764;15.406;2024-03-17T10:13:33;1.55;;;0.20;;
76348;SDS011;65172;46.764;15.406;2024-03-17T10:15:59;1.45;;;0.40;;
76348;SDS011;65172;46.764;15.406;2024-03-17T10:18:24;0.35;;;0.32;;
76348;SDS011;65172;46.764;15.406;2024-03-17T10:20:50;0.40;;;0.40;;
76348;SDS011;65172;46.764;15.406;2024-03-17T10:23:20;0.40;;;0.30;;
76348;SDS011;65172;46.764;15.406;2024-03-17T10:25:45;1.02;;;0.60;;
76348;SDS011;65172;46.764;15.406;2024-03-17T10:28:11;0.40;;;0.40;;
76348;SDS011;65172;46.764;15.406;2024-03-17T10:30:38;0.63;;;0.38;;
76348;SDS011;65172;46.764;15.406;2024-03-17T10:33:05;0.70;;;0.70;;
76348;SDS011;65172;46.764;15.406;2024-03-17T10:38:03;0.68;;;0.40;;
76348;SDS011;65172;46.764;15.406;2024-03-17T10:40:30;0.70;;;0.70;;
76348;SDS011;65172;46.764;15.406;2024-03-17T10:42:59;0.43;;;0.43;;
76348;SDS011;65172;46.764;15.406;2024-03-17T10:45:25;2.75;;;0.60;;
76348;SDS011;65172;46.764;15.406;2024-03-17T10:47:51;0.60;;;0.60;;
76348;SDS011;65172;46.764;15.406;2024-03-17T10:50:18;0.57;;;0.57;;
76348;SDS011;65172;46.764;15.406;2024-03-17T10:52:45;1.05;;;0.60;;
76348;SDS011;65172;46.764;15.406;2024-03-17T10:55:20;0.80;;;0.75;;
76348;SDS011;65172;46.764;15.406;2024-03-17T10:57:50;1.95;;;0.65;;
76348;SDS011;65172;46.764;15.406;2024-03-17T11:02:50;1.63;;;0.90;;
76348;SDS011;65172;46.764;15.406;2024-03-17T11:05:20;0.98;;;0.88;;
76348;SDS011;65172;46.764;15.406;2024-03-17T11:07:48;1.27;;;0.95;;
76348;SDS011;65172;46.764;15.406;2024-03-17T11:17:51;1.45;;;1.10;;
76348;SDS011;65172;46.764;15.406;2024-03-17T11:20:24;2.97;;;1.30;;
76348;SDS011;65172;46.764;15.406;2024-03-17T11:22:51;2.50;;;1.45;;
76348;SDS011;65172;46.764;15.406;2024-03-17T11:27:58;1.67;;;1.30;;
76348;SDS011;65172;46.764;15.406;2024-03-17T11:39:00;1.35;;;1.25;;
76348;SDS011;65172;46.764;15.406;2024-03-17T11:46:57;1.48;;;1.10;;
76348;SDS011;65172;46.764;15.406;2024-03-17T11:49:36;1.45;;;1.10;;
76348;SDS011;65172;46.764;15.406;2024-03-17T11:52:04;1.95;;;1.15;;
76348;SDS011;65172;46.764;15.406;2024-03-17T11:54:34;2.40;;;1.60;;
76348;SDS011;65172;46.764;15.406;2024-03-17T11:57:07;2.03;;;1.33;;
76348;SDS011;65172;46.764;15.406;2024-03-17T11:59:37;1.38;;;1.20;;
76348;SDS011;65172;46.764;15.406;2024-03-17T12:02:26;1.80;;;1.23;;
76348;SDS011;65172;46.764;15.406;2024-03-17T12:04:56;1.38;;;1.13;;
76348;SDS011;65172;46.764;15.406;2024-03-17T12:07:22;1.27;;;1.10;;
76348;SDS011;65172;46.764;15.406;2024-03-17T12:09:49;1.65;;;1.13;;
76348;SDS011;65172;46.764;15.406;2024-03-17T12:14:45;1.55;;;1.10;;
76348;SDS011;65172;46.764;15.406;2024-03-17T12:17:12;4.63;;;1.05;;
76348;SDS011;65172;46.764;15.406;2024-03-17T12:19:39;1.50;;;1.20;;
76348;SDS011;65172;46.764;15.406;2024-03-17T12:22:05;1.15;;;1.10;;
76348;SDS011;65172;46.764;15.406;2024-03-17T12:24:32;1.67;;;1.20;;
76348;SDS011;65172;46.764;15.406;2024-03-17T12:26:59;3.80;;;1.35;;
76348;SDS011;65172;46.764;15.406;2024-03-17T12:29:26;2.60;;;1.55;;
76348;SDS011;65172;46.764;15.406;2024-03-17T12:31:55;1.40;;;1.30;;
76348;SDS011;65172;46.764;15.406;2024-03-17T12:34:22;1.30;;;1.20;;
76348;SDS011;65172;46.764;15.406;2024-03-17T12:36:51;2.55;;;1.75;;
76348;SDS011;65172;46.764;15.406;2024-03-17T12:42:02;2.55;;;1.42;;
76348;SDS011;65172;46.764;15.406;2024-03-17T12:44:36;1.42;;;1.33;;
76348;SDS011;65172;46.764;15.406;2024-03-17T12:47:06;3.17;;;1.70;;
76348;SDS011;65172;46.764;15.406;2024-03-17T12:49:34;1.65;;;1.50;;
76348;SDS011;65172;46.764;15.406;2024-03-17T12:52:00;1.67;;;1.27;;
76348;SDS011;65172;46.764;15.406;2024-03-17T12:54:26;1.52;;;1.40;;
76348;SDS011;65172;46.764;15.406;2024-03-17T12:57:05;1.75;;;1.50;;
76348;SDS011;65172;46.764;15.406;2024-03-17T12:59:50;1.63;;;1.52;;
76348;SDS011;65172;46.764;15.406;2024-03-17T13:02:34;1.85;;;1.23;;
76348;SDS011;65172;46.764;15.406;2024-03-17T13:05:15;1.42;;;1.30;;
76348;SDS011;65172;46.764;15.406;2024-03-17T13:07:43;4.90;;;1.50;;
76348;SDS011;65172;46.764;15.406;2024-03-17T13:10:11;2.15;;;1.75;;
76348;SDS011;65172;46.764;15.406;2024-03-17T13:12:44;2.20;;;1.63;;
76348;SDS011;65172;46.764;15.406;2024-03-17T13:15:16;3.85;;;1.52;;
76348;SDS011;65172;46.764;15.406;2024-03-17T13:17:43;2.55;;;1.48;;
76348;SDS011;65172;46.764;15.406;2024-03-17T13:20:12;1.75;;;1.65;;
76348;SDS011;65172;46.764;15.406;2024-03-17T13:22:40;2.38;;;1.75;;
76348;SDS011;65172;46.764;15.406;2024-03-17T13:25:13;3.60;;;1.52;;
76348;SDS011;65172;46.764;15.406;2024-03-17T13:27:41;2.97;;;1.50;;
76348;SDS011;65172;46.764;15.406;2024-03-17T13:30:07;1.70;;;1.40;;
76348;SDS011;65172;46.764;15.406;2024-03-17T13:32:34;1.80;;;1.70;;
76348;SDS011;65172;46.764;15.406;2024-03-17T13:35:01;3.28;;;1.73;;
76348;SDS011;65172;46.764;15.406;2024-03-17T13:37:27;1.77;;;1.60;;
76348;SDS011;65172;46.764;15.406;2024-03-17T13:39:52;3.30;;;1.38;;
76348;SDS011;65172;46.764;15.406;2024-03-17T13:42:18;1.70;;;1.38;;
76348;SDS011;65172;46.764;15.406;2024-03-17T13:44:43;4.95;;;1.95;;
76348;SDS011;65172;46.764;15.406;2024-03-17T13:47:09;1.83;;;1.63;;
76348;SDS011;65172;46.764;15.406;2024-03-17T13:49:34;6.72;;;1.55;;
76348;SDS011;65172;46.764;15.406;2024-03-17T13:52:00;1.45;;;1.35;;
76348;SDS011;65172;46.764;15.406;2024-03-17T13:54:26;2.20;;;1.70;;
76348;SDS011;65172;46.764;15.406;2024-03-17T13:56:52;1.92;;;1.50;;
76348;SDS011;65172;46.764;15.406;2024-03-17T13:59:19;1.63;;;1.33;;
76348;SDS011;65172;46.764;15.406;2024-03-17T14:01:44;2.03;;;1.50;;
76348;SDS011;65172;46.764;15.406;2024-03-17T14:04:14;1.48;;;1.38;;
76348;SDS011;65172;46.764;15.406;2024-03-17T14:06:40;2.10;;;1.50;;
76348;SDS011;65172;46.764;15.406;2024-03-17T14:09:07;2.10;;;1.50;;
76348;SDS011;65172;46.764;15.406;2024-03-17T14:11:35;2.53;;;1.67;;
76348;SDS011;65172;46.764;15.406;2024-03-17T14:14:01;1.40;;;1.30;;
76348;SDS011;65172;46.764;15.406;2024-03-17T14:16:29;3.28;;;1.20;;
76348;SDS011;65172;46.764;15.406;2024-03-17T14:18:57;1.40;;;1.30;;
76348;SDS011;65172;46.764;15.406;2024-03-17T14:21:22;1.20;;;1.10;;
76348;SDS011;65172;46.764;15.406;2024-03-17T14:23:48;3.00;;;1.60;;
76348;SDS011;65172;46.764;15.406;2024-03-17T14:26:13;2.95;;;1.80;;
76348;SDS011;65172;46.764;15.406;2024-03-17T14:28:39;1.67;;;1.35;;
76348;SDS011;65172;46.764;15.406;2024-03-17T14:31:05;1.75;;;1.23;;
76348;SDS011;65172;46.764;15.406;2024-03-17T14:33:31;3.17;;;1.63;;
76348;SDS011;65172;46.764;15.406;2024-03-17T14:35:57;1.48;;;1.38;;
76348;SDS011;65172;46.764;15.406;2024-03-17T14:38:23;1.70;;;1.60;;
76348;SDS011;65172;46.764;15.406;2024-03-17T14:40:51;2.13;;;1.23;;
76348;SDS011;65172;46.764;15.406;2024-03-17T14:43:21;3.13;;;1.60;;
76348;SDS011;65172;46.764;15.406;2024-03-17T14:45:46;2.20;;;1.50;;
76348;SDS011;65172;46.764;15.406;2024-03-17T14:48:12;1.25;;;1.13;;
76348;SDS011;65172;46.764;15.406;2024-03-17T14:50:41;2.60;;;1.48;;
76348;SDS011;65172;46.764;15.406;2024-03-17T14:53:06;2.55;;;1.48;;
76348;SDS011;65172;46.764;15.406;2024-03-17T14:55:32;2.70;;;1.50;;
76348;SDS011;65172;46.764;15.406;2024-03-17T14:57:59;3.63;;;1.60;;
76348;SDS011;65172;46.764;15.406;2024-03-17T15:00:28;3.13;;;1.65;;
76348;SDS011;65172;46.764;15.406;2024-03-17T15:02:55;1.55;;;1.45;;
76348;SDS011;65172;46.764;15.406;2024-03-17T15:05:21;1.77;;;1.52;;
76348;SDS011;65172;46.764;15.406;2024-03-17T15:07:48;1.50;;;1.40;;
76348;SDS011;65172;46.764;15.406;2024-03-17T15:10:14;2.72;;;1.60;;
76348;SDS011;65172;46.764;15.406;2024-03-17T15:12:40;5.03;;;1.80;;
76348;SDS011;65172;46.764;15.406;2024-03-17T15:15:07;1.65;;;1.48;;
76348;SDS011;65172;46.764;15.406;2024-03-17T15:17:34;1.83;;;1.67;;
76348;SDS011;65172;46.764;15.406;2024-03-17T15:20:00;3.45;;;1.50;;
76348;SDS011;65172;46.764;15.406;2024-03-17T15:22:25;3.50;;;1.92;;